createdAt,value
2022-10-08T00:01:57.085Z,75.57
2022-10-08T00:03:58.456Z,75.87
2022-10-08T00:05:59.780Z,75.85
2022-10-08T00:08:02.230Z,76.22
2022-10-08T00:10:06.264Z,76.03
2022-10-08T00:12:07.551Z,75.69
2022-10-08T00:14:09.324Z,75.98
2022-10-08T00:16:12.286Z,76.00
2022-10-08T00:18:13.669Z,75.87
2022-10-08T00:20:14.949Z,76.08
2022-10-08T00:22:16.242Z,75.66
2022-10-08T00:24:17.560Z,75.63
2022-10-08T00:26:18.887Z,75.96
2022-10-08T00:28:20.231Z,75.88
2022-10-08T00:30:21.600Z,75.50
2022-10-08T00:32:22.890Z,75.83
2022-10-08T00:34:24.191Z,75.51
2022-10-08T00:36:25.550Z,75.58
2022-10-08T00:38:26.842Z,75.38
2022-10-08T00:40:28.128Z,75.48
2022-10-08T00:42:29.436Z,75.54
2022-10-08T00:44:30.715Z,75.74
2022-10-08T00:46:32.024Z,75.72
2022-10-08T00:48:33.541Z,75.79
2022-10-08T00:50:34.798Z,75.87
2022-10-08T00:52:36.298Z,75.75
2022-10-08T00:54:37.575Z,76.10
2022-10-08T00:56:38.907Z,75.87
2022-10-08T00:58:40.171Z,76.09
2022-10-08T01:00:41.535Z,76.23
2022-10-08T01:02:42.911Z,76.12
2022-10-08T01:04:44.431Z,76.06
2022-10-08T01:06:45.722Z,76.11
2022-10-08T01:08:47.003Z,76.40
2022-10-08T01:10:48.447Z,75.98
2022-10-08T01:12:50.355Z,76.05
2022-10-08T01:14:51.655Z,76.15
2022-10-08T01:16:54.265Z,76.08
2022-10-08T01:18:55.559Z,75.78
2022-10-08T01:20:56.869Z,76.06
2022-10-08T01:22:58.147Z,76.10
2022-10-08T01:25:17.992Z,76.41
2022-10-08T01:27:19.271Z,76.02
2022-10-08T01:29:21.510Z,76.21
2022-10-08T01:31:22.889Z,75.81
2022-10-08T01:33:24.243Z,75.89
2022-10-08T01:35:26.215Z,75.92
2022-10-08T01:37:28.380Z,75.95
2022-10-08T01:39:29.966Z,75.96
2022-10-08T01:41:31.315Z,76.29
2022-10-08T01:43:32.644Z,76.15
2022-10-08T01:45:33.973Z,76.44
2022-10-08T01:47:35.283Z,76.14
2022-10-08T01:49:36.548Z,76.72
2022-10-08T01:51:38.105Z,76.06
2022-10-08T01:53:39.406Z,76.65
2022-10-08T01:55:40.735Z,76.75
2022-10-08T01:57:41.993Z,76.43
2022-10-08T01:59:43.282Z,76.37
2022-10-08T02:01:44.754Z,76.10
2022-10-08T02:04:06.047Z,76.03
2022-10-08T02:06:07.311Z,76.05
2022-10-08T02:08:08.626Z,75.73
2022-10-08T02:10:09.890Z,75.88
2022-10-08T02:12:11.214Z,75.70
2022-10-08T02:14:12.495Z,75.73
2022-10-08T02:16:14.788Z,75.87
2022-10-08T02:18:16.087Z,75.57
2022-10-08T02:20:17.737Z,75.77
2022-10-08T02:22:19.023Z,75.83
2022-10-08T02:24:20.349Z,75.85
2022-10-08T02:26:21.638Z,75.92
2022-10-08T02:28:22.963Z,75.63
2022-10-08T02:30:24.288Z,75.61
2022-10-08T02:32:25.583Z,75.75
2022-10-08T02:34:26.909Z,76.17
2022-10-08T02:36:28.182Z,76.23
2022-10-08T02:38:29.459Z,75.83
2022-10-08T02:40:30.759Z,76.08
2022-10-08T02:42:32.082Z,75.95
2022-10-08T02:44:33.525Z,76.22
2022-10-08T02:46:35.222Z,75.93
2022-10-08T02:48:36.514Z,76.04
2022-10-08T02:50:38.013Z,76.06
2022-10-08T02:52:39.721Z,76.43
2022-10-08T02:54:41.012Z,76.17
2022-10-08T02:56:42.307Z,76.19
2022-10-08T02:58:43.787Z,75.50
2022-10-08T03:00:45.059Z,75.96
2022-10-08T03:02:46.734Z,75.85
2022-10-08T03:04:48.226Z,75.93
2022-10-08T03:06:49.485Z,75.67
2022-10-08T03:08:50.937Z,75.68
2022-10-08T03:10:52.247Z,75.81
2022-10-08T03:12:53.604Z,76.17
2022-10-08T03:14:54.888Z,75.75
2022-10-08T03:16:56.199Z,76.18
2022-10-08T03:18:59.186Z,76.26
2022-10-08T03:21:00.519Z,76.25
2022-10-08T03:23:02.015Z,75.95
2022-10-08T03:25:03.289Z,75.73
2022-10-08T03:27:04.567Z,75.75
2022-10-08T03:29:05.834Z,75.81
2022-10-08T03:31:07.213Z,75.98
2022-10-08T03:33:08.523Z,75.86
2022-10-08T03:35:09.857Z,76.46
2022-10-08T03:37:11.195Z,75.87
2022-10-08T03:39:12.498Z,76.48
2022-10-08T03:41:13.788Z,76.45
2022-10-08T03:43:15.098Z,76.16
2022-10-08T03:45:16.374Z,76.64
2022-10-08T03:47:17.663Z,76.76
2022-10-08T03:49:18.943Z,76.62
2022-10-08T03:51:20.251Z,76.56
2022-10-08T03:53:21.530Z,76.62
2022-10-08T03:55:22.863Z,76.60
2022-10-08T03:57:24.135Z,76.68
2022-10-08T03:59:25.411Z,76.66
2022-10-08T04:01:26.732Z,76.75
2022-10-08T04:03:28.066Z,77.21
2022-10-08T04:05:29.342Z,76.71
2022-10-08T04:07:30.671Z,76.91
2022-10-08T04:09:31.964Z,76.61
2022-10-08T04:11:33.262Z,76.85
2022-10-08T04:13:34.579Z,76.63
2022-10-08T04:15:35.885Z,76.67
2022-10-08T04:17:38.008Z,77.30
2022-10-08T04:19:39.302Z,76.59
2022-10-08T04:21:40.814Z,76.65
2022-10-08T04:23:42.089Z,76.96
2022-10-08T04:25:43.363Z,77.19
2022-10-08T04:27:49.120Z,77.04
2022-10-08T04:29:50.386Z,77.06
2022-10-08T04:31:51.667Z,76.52
2022-10-08T04:33:53.014Z,76.57
2022-10-08T04:35:59.727Z,76.28
2022-10-08T04:38:01.495Z,76.91
2022-10-08T04:40:02.779Z,76.56
2022-10-08T04:42:04.047Z,76.42
2022-10-08T04:44:05.338Z,76.46
2022-10-08T04:46:06.639Z,76.49
2022-10-08T04:48:08.010Z,76.61
2022-10-08T04:50:09.272Z,76.50
2022-10-08T04:52:10.902Z,76.49
2022-10-08T04:54:12.220Z,76.22
2022-10-08T04:56:13.478Z,77.06
2022-10-08T04:58:14.756Z,76.36
2022-10-08T05:00:18.696Z,76.48
2022-10-08T05:02:20.263Z,76.75
2022-10-08T05:04:21.595Z,76.41
2022-10-08T05:06:22.898Z,76.42
2022-10-08T05:08:24.230Z,76.45
2022-10-08T05:10:25.512Z,76.58
2022-10-08T05:12:26.782Z,76.82
2022-10-08T05:14:28.148Z,76.48
2022-10-08T05:16:29.490Z,76.49
2022-10-08T05:18:30.754Z,76.72
2022-10-08T05:20:32.078Z,76.97
2022-10-08T05:22:33.371Z,76.89
2022-10-08T05:24:34.699Z,76.86
2022-10-08T05:26:57.061Z,77.34
2022-10-08T05:28:57.222Z,77.14
2022-10-08T05:30:58.618Z,77.42
2022-10-08T05:32:59.934Z,76.96
2022-10-08T05:35:01.243Z,77.43
2022-10-08T05:37:02.532Z,77.43
2022-10-08T05:39:03.854Z,77.55
2022-10-08T05:41:05.161Z,77.35
2022-10-08T05:43:06.455Z,77.48
2022-10-08T05:45:07.767Z,77.84
2022-10-08T05:47:09.054Z,77.40
2022-10-08T05:49:10.351Z,77.16
2022-10-08T05:51:11.616Z,77.14
2022-10-08T05:53:12.946Z,77.10
2022-10-08T05:55:14.259Z,77.59
2022-10-08T05:57:15.533Z,77.43
2022-10-08T05:59:17.013Z,77.23
2022-10-08T06:01:20.103Z,77.18
2022-10-08T06:03:21.374Z,77.29
2022-10-08T06:05:22.739Z,77.50
2022-10-08T06:07:24.013Z,77.54
2022-10-08T06:09:25.303Z,77.72
2022-10-08T06:11:27.139Z,77.45
2022-10-08T06:13:28.415Z,77.61
2022-10-08T06:15:29.708Z,77.31
2022-10-08T06:17:30.987Z,77.56
2022-10-08T06:19:34.151Z,78.03
2022-10-08T06:21:35.407Z,77.65
2022-10-08T06:23:36.689Z,77.68
2022-10-08T06:25:38.167Z,77.93
2022-10-08T06:27:39.451Z,77.80
2022-10-08T06:29:40.743Z,77.63
2022-10-08T06:31:42.223Z,77.54
2022-10-08T06:33:43.563Z,77.86
2022-10-08T06:35:44.830Z,78.14
2022-10-08T06:37:46.151Z,78.20
2022-10-08T06:39:48.568Z,78.18
2022-10-08T06:41:49.959Z,77.86
2022-10-08T06:43:51.270Z,77.51
2022-10-08T06:45:53.321Z,77.76
2022-10-08T06:47:54.601Z,77.87
2022-10-08T06:49:55.891Z,78.04
2022-10-08T06:51:57.142Z,78.04
2022-10-08T06:54:02.884Z,77.96
2022-10-08T06:56:08.233Z,77.93
2022-10-08T06:58:09.506Z,78.09
2022-10-08T07:00:10.783Z,77.57
2022-10-08T07:02:12.152Z,71.92
2022-10-08T07:04:13.507Z,71.05
2022-10-08T07:06:14.779Z,70.53
2022-10-08T07:08:16.198Z,70.09
2022-10-08T07:10:18.543Z,69.47
2022-10-08T07:12:19.988Z,68.40
2022-10-08T07:14:21.475Z,68.98
2022-10-08T07:16:23.287Z,68.73
2022-10-08T07:18:24.707Z,70.38
2022-10-08T07:20:26.203Z,69.79
2022-10-08T07:22:27.547Z,69.30
2022-10-08T07:24:28.870Z,69.42
2022-10-08T07:26:30.223Z,69.74
2022-10-08T07:28:31.700Z,70.14
2022-10-08T07:30:33.234Z,70.44
2022-10-08T07:32:34.511Z,70.65
2022-10-08T07:34:35.792Z,71.11
2022-10-08T07:36:37.128Z,71.20
2022-10-08T07:38:38.415Z,71.84
2022-10-08T07:40:39.692Z,71.66
2022-10-08T07:42:41.170Z,71.76
2022-10-08T07:44:42.431Z,72.11
2022-10-08T07:46:43.787Z,71.92
2022-10-08T07:48:45.134Z,72.18
2022-10-08T07:50:46.540Z,71.88
2022-10-08T07:52:48.082Z,72.32
2022-10-08T07:54:49.559Z,72.39
2022-10-08T07:56:50.908Z,72.54
2022-10-08T07:58:52.223Z,72.61
2022-10-08T08:00:53.610Z,72.62
2022-10-08T08:02:54.954Z,71.53
2022-10-08T08:04:56.291Z,70.08
2022-10-08T08:06:57.611Z,68.98
2022-10-08T08:08:58.942Z,69.29
2022-10-08T08:11:00.264Z,69.05
2022-10-08T08:13:01.567Z,68.52
2022-10-08T08:15:03.121Z,69.16
2022-10-08T08:17:04.414Z,69.12
2022-10-08T08:19:05.691Z,69.11
2022-10-08T08:21:06.987Z,69.62
2022-10-08T08:23:08.307Z,70.19
2022-10-08T08:25:09.575Z,69.29
2022-10-08T08:27:10.891Z,70.36
2022-10-08T08:29:12.247Z,71.87
2022-10-08T08:31:14.028Z,72.29
2022-10-08T08:33:15.281Z,72.53
2022-10-08T08:35:16.616Z,72.75
2022-10-08T08:37:17.961Z,73.13
2022-10-08T08:39:19.268Z,73.02
2022-10-08T08:41:20.841Z,73.08
2022-10-08T08:43:22.363Z,73.29
2022-10-08T08:45:45.478Z,73.57
2022-10-08T08:47:46.724Z,73.06
2022-10-08T08:49:48.055Z,73.51
2022-10-08T08:51:49.476Z,73.44
2022-10-08T08:53:50.762Z,73.09
2022-10-08T08:55:52.198Z,73.24
2022-10-08T08:57:53.492Z,72.97
2022-10-08T08:59:54.966Z,73.10
2022-10-08T09:01:56.287Z,73.09
2022-10-08T09:03:57.550Z,73.10
2022-10-08T09:05:58.831Z,72.88
2022-10-08T09:08:00.203Z,73.54
2022-10-08T09:10:01.711Z,73.03
2022-10-08T09:12:03.033Z,73.49
2022-10-08T09:14:04.311Z,73.39
2022-10-08T09:16:05.655Z,73.43
2022-10-08T09:18:07.015Z,73.68
2022-10-08T09:20:08.286Z,73.53
2022-10-08T09:22:09.576Z,73.57
2022-10-08T09:24:10.858Z,73.76
2022-10-08T09:26:13.590Z,73.92
2022-10-08T09:28:14.894Z,73.58
2022-10-08T09:30:16.179Z,73.67
2022-10-08T09:32:17.663Z,74.14
2022-10-08T09:34:19.091Z,73.98
2022-10-08T09:36:20.354Z,73.89
2022-10-08T09:38:21.615Z,74.23
2022-10-08T09:40:22.971Z,73.89
2022-10-08T09:42:24.255Z,74.09
2022-10-08T09:44:25.537Z,74.12
2022-10-08T09:46:26.857Z,74.33
2022-10-08T09:48:28.158Z,73.95
2022-10-08T09:50:29.446Z,74.45
2022-10-08T09:52:30.750Z,74.30
2022-10-08T09:54:32.019Z,74.90
2022-10-08T09:56:33.904Z,72.02
2022-10-08T09:58:35.697Z,71.55
2022-10-08T10:00:37.156Z,71.49
2022-10-08T10:02:38.431Z,71.62
2022-10-08T10:04:40.478Z,72.01
2022-10-08T10:06:41.750Z,72.01
2022-10-08T10:08:48.273Z,71.49
2022-10-08T10:10:49.560Z,71.60
2022-10-08T10:12:50.911Z,71.81
2022-10-08T10:14:52.234Z,72.60
2022-10-08T10:16:53.611Z,72.89
2022-10-08T10:18:54.905Z,71.89
2022-10-08T10:20:58.489Z,72.08
2022-10-08T10:22:59.826Z,72.49
2022-10-08T10:25:01.126Z,72.94
2022-10-08T10:27:02.399Z,73.10
2022-10-08T10:29:03.667Z,72.93
2022-10-08T10:31:04.997Z,72.91
2022-10-08T10:33:06.349Z,72.79
2022-10-08T10:35:07.655Z,72.92
2022-10-08T10:37:08.950Z,72.52
2022-10-08T10:39:10.258Z,72.59
2022-10-08T10:41:11.535Z,72.26
2022-10-08T10:43:12.803Z,72.22
2022-10-08T10:45:14.157Z,72.82
2022-10-08T10:47:15.554Z,72.51
2022-10-08T10:49:16.841Z,72.38
2022-10-08T10:51:18.140Z,72.35
2022-10-08T10:53:20.385Z,72.29
2022-10-08T10:55:21.664Z,72.23
2022-10-08T10:57:22.922Z,72.08
2022-10-08T10:59:24.183Z,71.82
2022-10-08T11:01:25.509Z,71.71
2022-10-08T11:03:26.870Z,71.89
2022-10-08T11:05:28.149Z,71.88
2022-10-08T11:07:29.426Z,70.73
2022-10-08T11:09:30.929Z,70.58
2022-10-08T11:11:33.321Z,71.01
2022-10-08T11:13:34.763Z,71.13
2022-10-08T11:15:36.178Z,71.37
2022-10-08T11:17:37.528Z,71.71
2022-10-08T11:19:38.838Z,71.78
2022-10-08T11:21:40.130Z,72.38
2022-10-08T11:23:41.427Z,72.88
2022-10-08T11:26:03.020Z,72.73
2022-10-08T11:28:04.160Z,73.20
2022-10-08T11:30:05.791Z,73.03
2022-10-08T11:32:07.119Z,73.70
2022-10-08T11:34:08.419Z,73.52
2022-10-08T11:36:09.689Z,73.67
2022-10-08T11:38:10.970Z,73.91
2022-10-08T11:40:12.260Z,73.85
2022-10-08T11:42:13.562Z,73.45
2022-10-08T11:44:14.887Z,73.04
2022-10-08T11:46:16.866Z,72.99
2022-10-08T11:48:18.171Z,73.47
2022-10-08T11:50:19.444Z,72.99
2022-10-08T11:52:20.771Z,73.36
2022-10-08T11:54:22.042Z,73.69
2022-10-08T11:56:23.324Z,73.79
2022-10-08T11:58:24.798Z,74.11
2022-10-08T12:00:26.304Z,74.41
2022-10-08T12:02:27.798Z,74.58
2022-10-08T12:04:29.178Z,74.12
2022-10-08T12:06:30.551Z,74.78
2022-10-08T12:08:31.863Z,74.65
2022-10-08T12:10:33.220Z,74.95
2022-10-08T12:12:34.477Z,74.36
2022-10-08T12:14:35.770Z,74.63
2022-10-08T12:16:37.096Z,75.38
2022-10-08T12:18:38.373Z,75.17
2022-10-08T12:20:39.637Z,75.14
2022-10-08T12:22:40.922Z,75.13
2022-10-08T12:24:50.167Z,74.92
2022-10-08T12:26:51.895Z,75.30
2022-10-08T12:28:53.221Z,75.13
2022-10-08T12:30:54.553Z,75.04
2022-10-08T12:32:55.924Z,74.31
2022-10-08T12:34:57.316Z,74.66
2022-10-08T12:36:58.640Z,74.65
2022-10-08T12:38:59.910Z,74.62
2022-10-08T12:41:01.200Z,74.50
2022-10-08T12:43:02.478Z,74.47
2022-10-08T12:45:03.755Z,74.08
2022-10-08T12:47:05.146Z,74.17
2022-10-08T12:49:06.526Z,73.96
2022-10-08T12:51:07.820Z,73.43
2022-10-08T12:53:09.214Z,73.59
2022-10-08T12:55:10.471Z,73.67
2022-10-08T12:57:11.737Z,73.21
2022-10-08T12:59:13.076Z,73.43
2022-10-08T13:01:14.398Z,73.12
2022-10-08T13:03:16.510Z,73.17
2022-10-08T13:05:17.823Z,73.53
2022-10-08T13:07:19.134Z,73.57
2022-10-08T13:09:20.468Z,73.39
2022-10-08T13:11:22.074Z,73.43
2022-10-08T13:13:23.333Z,73.52
2022-10-08T13:15:26.101Z,73.19
2022-10-08T13:17:27.366Z,72.99
2022-10-08T13:19:28.877Z,72.95
2022-10-08T13:21:30.174Z,73.07
2022-10-08T13:23:31.467Z,72.87
2022-10-08T13:25:32.791Z,72.75
2022-10-08T13:27:34.131Z,73.11
2022-10-08T13:29:35.501Z,73.34
2022-10-08T13:31:37.055Z,73.17
2022-10-08T13:33:38.974Z,73.38
2022-10-08T13:35:40.234Z,73.40
2022-10-08T13:37:41.503Z,73.67
2022-10-08T13:39:42.826Z,73.29
2022-10-08T13:41:44.124Z,73.37
2022-10-08T13:43:45.395Z,73.58
2022-10-08T13:45:46.710Z,73.41
2022-10-08T13:47:48.428Z,73.73
2022-10-08T13:49:50.041Z,73.90
2022-10-08T13:51:51.388Z,74.02
2022-10-08T13:53:56.942Z,74.29
2022-10-08T13:55:58.611Z,73.93
2022-10-08T13:58:02.747Z,73.96
2022-10-08T14:00:04.011Z,74.16
2022-10-08T14:02:05.367Z,74.49
2022-10-08T14:04:06.691Z,74.17
2022-10-08T14:06:07.967Z,74.19
2022-10-08T14:08:09.290Z,74.43
2022-10-08T14:10:11.598Z,74.38
2022-10-08T14:12:12.852Z,74.35
2022-10-08T14:14:14.686Z,74.44
2022-10-08T14:16:16.031Z,74.17
2022-10-08T14:18:17.419Z,74.31
2022-10-08T14:20:18.870Z,74.28
2022-10-08T14:22:20.152Z,74.23
2022-10-08T14:24:21.466Z,74.20
2022-10-08T14:26:22.799Z,74.38
2022-10-08T14:28:24.125Z,74.22
2022-10-08T14:30:25.473Z,74.30
2022-10-08T14:32:26.731Z,74.34
2022-10-08T14:34:28.067Z,74.62
2022-10-08T14:36:29.354Z,74.56
2022-10-08T14:38:34.055Z,74.38
2022-10-08T14:40:35.350Z,74.49
2022-10-08T14:42:36.602Z,74.37
2022-10-08T14:44:37.870Z,74.29
2022-10-08T14:46:39.134Z,74.51
2022-10-08T14:48:40.575Z,74.36
2022-10-08T14:50:41.874Z,74.01
2022-10-08T14:52:44.564Z,73.93
2022-10-08T14:54:46.139Z,74.05
2022-10-08T14:56:47.610Z,73.75
2022-10-08T14:58:48.877Z,73.98
2022-10-08T15:00:50.271Z,74.38
2022-10-08T15:02:52.027Z,74.72
2022-10-08T15:04:54.874Z,74.41
2022-10-08T15:06:56.182Z,74.50
2022-10-08T15:08:57.454Z,74.17
2022-10-08T15:10:58.728Z,74.42
2022-10-08T15:13:00.004Z,74.17
2022-10-08T15:15:01.315Z,73.84
2022-10-08T15:17:02.590Z,74.57
2022-10-08T15:19:03.916Z,74.30
2022-10-08T15:21:05.203Z,74.21
2022-10-08T15:23:07.197Z,74.44
2022-10-08T15:25:08.491Z,74.47
2022-10-08T15:27:09.767Z,74.48
2022-10-08T15:29:11.038Z,74.43
2022-10-08T15:31:12.357Z,74.22
2022-10-08T15:33:13.631Z,74.50
2022-10-08T15:35:14.943Z,74.54
2022-10-08T15:37:16.219Z,74.10
2022-10-08T15:39:17.822Z,74.40
2022-10-08T15:41:19.087Z,74.11
2022-10-08T15:43:20.415Z,74.00
2022-10-08T15:45:21.732Z,73.86
2022-10-08T15:47:23.014Z,74.00
2022-10-08T15:49:24.350Z,74.06
2022-10-08T15:51:25.670Z,74.16
2022-10-08T15:53:26.942Z,74.21
2022-10-08T15:55:28.415Z,74.20
2022-10-08T15:57:29.732Z,74.05
2022-10-08T15:59:31.023Z,74.23
2022-10-08T16:01:32.378Z,74.35
2022-10-08T16:03:33.765Z,74.39
2022-10-08T16:05:35.018Z,74.14
2022-10-08T16:07:36.528Z,74.47
2022-10-08T16:09:38.043Z,74.15
2022-10-08T16:11:39.339Z,74.17
2022-10-08T16:13:40.596Z,74.40
2022-10-08T16:15:41.867Z,74.42
2022-10-08T16:17:43.138Z,74.23
2022-10-08T16:19:44.665Z,74.48
2022-10-08T16:21:45.938Z,74.36
2022-10-08T16:23:47.215Z,74.51
2022-10-08T16:25:48.490Z,74.26
2022-10-08T16:27:50.268Z,74.29
2022-10-08T16:29:51.769Z,74.42
2022-10-08T16:31:53.758Z,74.31
2022-10-08T16:33:55.040Z,73.91
2022-10-08T16:35:56.362Z,73.91
2022-10-08T16:37:57.641Z,73.83
2022-10-08T16:40:03.785Z,73.60
2022-10-08T16:42:05.111Z,73.71
2022-10-08T16:44:09.867Z,73.43
2022-10-08T16:46:13.573Z,73.35
2022-10-08T16:48:14.931Z,73.68
2022-10-08T16:50:16.215Z,73.41
2022-10-08T16:52:17.484Z,73.33
2022-10-08T16:54:18.812Z,73.62
2022-10-08T16:56:20.086Z,73.59
2022-10-08T16:58:21.402Z,73.34
2022-10-08T17:00:22.680Z,73.50
2022-10-08T17:02:26.104Z,73.52
2022-10-08T17:04:28.391Z,73.34
2022-10-08T17:06:29.679Z,73.35
2022-10-08T17:08:31.012Z,73.48
2022-10-08T17:10:32.299Z,73.41
2022-10-08T17:12:33.569Z,73.03
2022-10-08T17:14:35.459Z,73.24
2022-10-08T17:16:36.809Z,73.33
2022-10-08T17:18:38.194Z,73.64
2022-10-08T17:20:39.876Z,73.70
2022-10-08T17:22:41.216Z,73.54
2022-10-08T17:24:42.554Z,73.69
2022-10-08T17:26:43.830Z,73.73
2022-10-08T17:28:45.266Z,73.59
2022-10-08T17:30:46.670Z,73.44
2022-10-08T17:32:48.279Z,73.45
2022-10-08T17:34:49.724Z,73.80
2022-10-08T17:36:51.022Z,73.78
2022-10-08T17:38:52.809Z,73.83
2022-10-08T17:40:54.852Z,73.69
2022-10-08T17:42:56.213Z,73.87
2022-10-08T17:44:58.628Z,73.94
2022-10-08T17:47:00.031Z,73.88
2022-10-08T17:49:01.375Z,74.07
2022-10-08T17:51:02.860Z,74.00
2022-10-08T17:53:04.155Z,74.03
2022-10-08T17:55:05.442Z,74.02
2022-10-08T17:57:06.720Z,73.46
2022-10-08T17:59:08.122Z,73.64
2022-10-08T18:01:09.513Z,73.75
2022-10-08T18:03:10.916Z,73.69
2022-10-08T18:05:12.233Z,73.72
2022-10-08T18:07:14.799Z,73.71
2022-10-08T18:09:16.099Z,73.94
2022-10-08T18:11:17.397Z,73.88
2022-10-08T18:13:18.755Z,73.84
2022-10-08T18:15:20.039Z,73.65
2022-10-08T18:17:21.310Z,73.65
2022-10-08T18:19:22.796Z,73.41
2022-10-08T18:21:24.081Z,73.73
2022-10-08T18:23:25.680Z,73.85
2022-10-08T18:25:27.275Z,73.80
2022-10-08T18:27:28.612Z,73.75
2022-10-08T18:29:29.900Z,73.62
2022-10-08T18:31:31.323Z,73.57
2022-10-08T18:33:32.760Z,73.76
2022-10-08T18:35:35.080Z,73.60
2022-10-08T18:37:36.391Z,73.77
2022-10-08T18:39:37.725Z,73.39
2022-10-08T18:41:40.695Z,73.69
2022-10-08T18:43:42.146Z,73.35
2022-10-08T18:45:43.416Z,73.18
2022-10-08T18:47:44.706Z,73.19
2022-10-08T18:49:47.322Z,73.13
2022-10-08T18:51:48.607Z,73.15
2022-10-08T18:53:49.870Z,72.98
2022-10-08T18:55:51.159Z,73.11
2022-10-08T18:57:52.418Z,72.84
2022-10-08T18:59:53.759Z,73.01
2022-10-08T19:01:59.088Z,73.24
2022-10-08T19:04:00.885Z,73.11
2022-10-08T19:06:02.206Z,73.32
2022-10-08T19:08:04.230Z,73.11
2022-10-08T19:10:05.527Z,73.21
2022-10-08T19:12:08.112Z,73.23
2022-10-08T19:14:09.450Z,73.01
2022-10-08T19:16:13.867Z,73.22
2022-10-08T19:18:15.233Z,73.22
2022-10-08T19:20:16.594Z,73.03
2022-10-08T19:22:17.945Z,73.05
2022-10-08T19:24:20.432Z,73.24
2022-10-08T19:26:21.762Z,72.85
2022-10-08T19:28:23.142Z,73.25
2022-10-08T19:30:28.371Z,73.42
2022-10-08T19:32:32.945Z,73.04
2022-10-08T19:34:34.259Z,73.42
2022-10-08T19:36:35.535Z,73.20
2022-10-08T19:38:37.026Z,73.62
2022-10-08T19:40:38.370Z,73.33
2022-10-08T19:42:40.512Z,73.47
2022-10-08T19:44:41.881Z,73.38
2022-10-08T19:46:43.663Z,73.65
2022-10-08T19:48:44.966Z,73.62
2022-10-08T19:50:46.271Z,73.44
2022-10-08T19:52:51.623Z,73.48
2022-10-08T19:54:53.243Z,73.57
2022-10-08T19:56:55.924Z,73.34
2022-10-08T19:58:57.304Z,73.28
2022-10-08T20:00:58.704Z,73.30
2022-10-08T20:03:00.047Z,73.15
2022-10-08T20:05:01.391Z,73.50
2022-10-08T20:07:02.712Z,73.19
2022-10-08T20:09:04.374Z,73.17
2022-10-08T20:11:05.659Z,73.25
2022-10-08T20:13:07.168Z,73.09
2022-10-08T20:15:10.065Z,73.13
2022-10-08T20:17:11.353Z,73.33
2022-10-08T20:19:12.639Z,73.10
2022-10-08T20:21:13.901Z,73.38
2022-10-08T20:23:15.187Z,73.43
2022-10-08T20:25:21.149Z,73.34
2022-10-08T20:27:23.319Z,73.45
2022-10-08T20:29:30.040Z,73.44
2022-10-08T20:31:32.234Z,73.40
2022-10-08T20:33:33.542Z,73.49
2022-10-08T20:35:34.811Z,73.44
2022-10-08T20:37:36.110Z,73.50
2022-10-08T20:39:37.382Z,73.34
2022-10-08T20:41:38.655Z,73.42
2022-10-08T20:43:40.242Z,73.53
2022-10-08T20:45:41.518Z,73.64
2022-10-08T20:47:42.789Z,73.45
2022-10-08T20:49:44.105Z,73.31
2022-10-08T20:51:46.032Z,73.56
2022-10-08T20:53:47.352Z,73.72
2022-10-08T20:55:48.670Z,73.44
2022-10-08T20:57:49.991Z,73.41
2022-10-08T20:59:51.312Z,73.44
2022-10-08T21:01:52.714Z,73.63
2022-10-08T21:03:54.673Z,73.59
2022-10-08T21:05:55.944Z,73.75
2022-10-08T21:07:57.250Z,73.72
2022-10-08T21:09:59.531Z,73.62
2022-10-08T21:12:00.848Z,73.57
2022-10-08T21:14:03.607Z,73.56
2022-10-08T21:16:05.023Z,73.47
2022-10-08T21:18:06.426Z,73.43
2022-10-08T21:20:07.703Z,73.24
2022-10-08T21:22:08.987Z,73.09
2022-10-08T21:24:10.338Z,73.26
2022-10-08T21:26:11.626Z,72.96
2022-10-08T21:28:12.983Z,73.05
2022-10-08T21:30:14.332Z,73.21
2022-10-08T21:32:16.828Z,72.98
2022-10-08T21:34:18.154Z,72.82
2022-10-08T21:36:19.471Z,72.98
2022-10-08T21:38:20.737Z,72.81
2022-10-08T21:40:22.018Z,72.99
2022-10-08T21:42:23.324Z,73.11
2022-10-08T21:44:24.635Z,73.08
2022-10-08T21:46:25.906Z,73.14
2022-10-08T21:48:27.252Z,73.00
2022-10-08T21:50:29.659Z,72.91
2022-10-08T21:52:32.453Z,73.46
2022-10-08T21:54:33.751Z,73.02
2022-10-08T21:56:35.014Z,73.10
2022-10-08T21:58:36.278Z,72.98
2022-10-08T22:00:37.607Z,72.69
2022-10-08T22:02:38.942Z,73.00
2022-10-08T22:04:40.238Z,72.81
2022-10-08T22:06:41.550Z,72.82
2022-10-08T22:08:42.837Z,72.81
2022-10-08T22:10:44.191Z,72.99
2022-10-08T22:12:45.697Z,73.18
2022-10-08T22:14:47.186Z,72.89
2022-10-08T22:16:48.536Z,73.09
2022-10-08T22:18:49.842Z,72.82
2022-10-08T22:20:51.185Z,72.00
2022-10-08T22:22:52.454Z,71.49
2022-10-08T22:24:53.720Z,70.09
2022-10-08T22:26:55.058Z,69.65
2022-10-08T22:28:56.331Z,70.58
2022-10-08T22:30:57.623Z,70.23
2022-10-08T22:32:58.903Z,70.47
2022-10-08T22:35:00.227Z,70.41
2022-10-08T22:37:01.652Z,71.00
2022-10-08T22:39:02.949Z,70.98
2022-10-08T22:41:05.269Z,70.49
2022-10-08T22:43:06.568Z,70.61
2022-10-08T22:45:07.963Z,70.86
2022-10-08T22:47:09.269Z,70.49
2022-10-08T22:49:10.548Z,70.50
2022-10-08T22:51:11.952Z,69.96
2022-10-08T22:53:13.247Z,69.30
2022-10-08T22:55:14.613Z,69.73
2022-10-08T22:57:15.920Z,69.68
2022-10-08T22:59:17.215Z,70.11
2022-10-08T23:01:18.490Z,70.42
2022-10-08T23:03:19.850Z,69.40
2022-10-08T23:05:21.226Z,69.87
2022-10-08T23:07:22.506Z,70.17
2022-10-08T23:09:23.833Z,70.34
2022-10-08T23:11:25.633Z,69.23
2022-10-08T23:13:26.961Z,69.89
2022-10-08T23:15:28.280Z,70.43
2022-10-08T23:17:29.603Z,70.29
2022-10-08T23:19:30.888Z,70.79
2022-10-08T23:21:32.235Z,71.06
2022-10-08T23:23:33.585Z,71.02
2022-10-08T23:25:34.845Z,71.69
2022-10-08T23:27:36.216Z,71.63
2022-10-08T23:29:37.505Z,72.18
2022-10-08T23:31:38.833Z,72.41
2022-10-08T23:33:40.171Z,72.34
2022-10-08T23:35:41.473Z,72.19
2022-10-08T23:37:42.772Z,72.36
2022-10-08T23:39:44.082Z,72.34
2022-10-08T23:41:45.350Z,72.72
2022-10-08T23:43:46.623Z,72.63
2022-10-08T23:45:47.970Z,72.70
2022-10-08T23:47:49.274Z,73.07
2022-10-08T23:49:50.598Z,72.66
2022-10-08T23:51:52.109Z,72.83
2022-10-08T23:53:53.387Z,73.10
2022-10-08T23:55:54.659Z,72.92
2022-10-08T23:57:55.955Z,73.30
2022-10-08T23:59:57.235Z,73.13
